createdAt,value
2023-03-07T00:00:24.237Z,7.90
2023-03-07T00:03:14.811Z,7.90
2023-03-07T00:05:43.538Z,7.60
2023-03-07T00:08:11.698Z,8.10
2023-03-07T00:10:39.596Z,7.90
2023-03-07T00:13:08.908Z,7.40
2023-03-07T00:15:39.406Z,7.80
2023-03-07T00:18:07.584Z,7.60
2023-03-07T00:20:36.054Z,7.70
2023-03-07T00:23:05.145Z,8.20
2023-03-07T00:25:33.217Z,7.90
2023-03-07T00:28:01.393Z,7.70
2023-03-07T00:30:32.534Z,7.80
2023-03-07T00:33:00.508Z,7.70
2023-03-07T00:35:28.578Z,7.80
2023-03-07T00:37:56.650Z,8.10
2023-03-07T00:40:24.614Z,7.90
2023-03-07T00:42:53.100Z,8.30
2023-03-07T00:45:21.077Z,7.60
2023-03-07T00:47:49.043Z,7.70
2023-03-07T00:50:17.425Z,7.40
2023-03-07T00:52:45.701Z,7.80
2023-03-07T00:55:14.187Z,7.00
2023-03-07T00:57:42.251Z,8.30
2023-03-07T01:00:11.942Z,7.50
2023-03-07T01:02:40.150Z,7.70
2023-03-07T01:05:09.542Z,8.00
2023-03-07T01:07:37.895Z,7.60
2023-03-07T01:10:07.073Z,8.20
2023-03-07T01:12:35.948Z,7.90
2023-03-07T01:15:06.550Z,7.70
2023-03-07T01:17:34.745Z,7.80
2023-03-07T01:20:07.280Z,8.00
2023-03-07T01:22:36.487Z,8.40
2023-03-07T01:25:06.994Z,8.00
2023-03-07T01:27:36.073Z,8.10
2023-03-07T01:30:07.327Z,7.90
2023-03-07T01:32:37.519Z,7.50
2023-03-07T01:35:06.796Z,7.90
2023-03-07T01:37:34.953Z,7.60
2023-03-07T01:40:04.850Z,8.00
2023-03-07T01:42:32.957Z,7.70
2023-03-07T01:45:34.466Z,7.70
2023-03-07T01:48:03.085Z,7.80
2023-03-07T01:50:31.905Z,7.00
2023-03-07T01:53:01.287Z,8.20
2023-03-07T01:55:35.131Z,7.70
2023-03-07T01:58:15.192Z,8.10
2023-03-07T02:00:45.695Z,7.70
2023-03-07T02:03:41.976Z,7.30
2023-03-07T02:06:14.229Z,7.70
2023-03-07T02:08:46.033Z,8.70
2023-03-07T02:11:14.813Z,8.40
2023-03-07T02:13:43.293Z,7.40
2023-03-07T02:16:12.224Z,8.30
2023-03-07T02:18:49.434Z,8.10
2023-03-07T02:21:49.690Z,7.80
2023-03-07T02:24:34.479Z,8.10
2023-03-07T02:27:02.732Z,8.30
2023-03-07T02:29:30.890Z,7.70
2023-03-07T02:31:59.100Z,8.30
2023-03-07T02:34:31.334Z,8.40
2023-03-07T02:37:34.966Z,8.50
2023-03-07T02:40:12.600Z,8.20
2023-03-07T02:42:43.486Z,8.30
2023-03-07T02:45:18.158Z,8.00
2023-03-07T02:47:46.804Z,8.50
2023-03-07T02:50:18.021Z,7.80
2023-03-07T02:52:50.132Z,8.20
2023-03-07T02:55:18.390Z,8.60
2023-03-07T02:57:51.326Z,8.30
2023-03-07T03:00:21.003Z,7.70
2023-03-07T03:02:49.376Z,8.30
2023-03-07T03:05:17.666Z,8.20
2023-03-07T03:07:45.718Z,8.70
2023-03-07T03:10:14.202Z,8.80
2023-03-07T03:12:42.788Z,8.80
2023-03-07T03:15:12.192Z,8.20
2023-03-07T03:17:42.529Z,8.40
2023-03-07T03:20:13.850Z,8.00
2023-03-07T03:22:42.240Z,8.60
2023-03-07T03:25:14.447Z,8.50
2023-03-07T03:27:43.407Z,8.00
2023-03-07T03:30:14.206Z,8.90
2023-03-07T03:32:44.014Z,8.10
2023-03-07T03:35:14.998Z,8.20
2023-03-07T03:37:43.675Z,8.20
2023-03-07T03:40:14.874Z,7.90
2023-03-07T03:42:45.562Z,8.50
2023-03-07T03:45:17.902Z,8.80
2023-03-07T03:47:48.588Z,8.20
2023-03-07T03:50:17.589Z,8.60
2023-03-07T03:52:46.132Z,8.30
2023-03-07T03:55:15.632Z,8.40
2023-03-07T03:57:43.920Z,8.80
2023-03-07T04:00:15.520Z,8.20
2023-03-07T04:02:44.294Z,8.10
2023-03-07T04:05:13.710Z,8.40
2023-03-07T04:07:41.834Z,8.70
2023-03-07T04:10:11.113Z,8.20
2023-03-07T04:12:41.158Z,8.10
2023-03-07T04:15:10.450Z,8.40
2023-03-07T04:17:39.547Z,8.50
2023-03-07T04:20:14.588Z,8.70
2023-03-07T04:22:43.480Z,8.90
2023-03-07T04:25:12.467Z,8.80
2023-03-07T04:27:40.742Z,9.10
2023-03-07T04:30:10.274Z,8.20
2023-03-07T04:32:39.641Z,8.20
2023-03-07T04:35:10.082Z,8.80
2023-03-07T04:37:38.120Z,7.80
2023-03-07T04:40:07.233Z,8.60
2023-03-07T04:42:36.040Z,8.40
2023-03-07T04:45:05.132Z,8.20
2023-03-07T04:47:33.209Z,7.80
2023-03-07T04:50:01.433Z,8.10
2023-03-07T04:52:30.777Z,8.50
2023-03-07T04:54:58.953Z,8.40
2023-03-07T04:57:27.638Z,8.10
2023-03-07T04:59:56.641Z,7.90
2023-03-07T05:02:25.017Z,7.40
2023-03-07T05:04:53.496Z,8.10
2023-03-07T05:07:21.899Z,7.50
2023-03-07T05:09:51.407Z,7.60
2023-03-07T05:12:19.755Z,7.80
2023-03-07T05:14:48.002Z,7.60
2023-03-07T05:17:16.208Z,7.80
2023-03-07T05:19:44.590Z,7.60
2023-03-07T05:22:13.066Z,7.70
2023-03-07T05:24:44.040Z,6.30
2023-03-07T05:27:13.132Z,7.60
2023-03-07T05:29:41.191Z,6.80
2023-03-07T05:32:11.063Z,6.90
2023-03-07T05:34:39.885Z,7.00
2023-03-07T05:37:08.056Z,6.80
2023-03-07T05:39:36.329Z,7.00
2023-03-07T05:42:05.336Z,6.80
2023-03-07T05:44:34.292Z,6.60
2023-03-07T05:47:03.731Z,7.00
2023-03-07T05:49:32.817Z,7.20
2023-03-07T05:52:00.949Z,7.10
2023-03-07T05:54:28.904Z,7.30
2023-03-07T05:56:57.083Z,6.90
2023-03-07T05:59:25.661Z,6.90
2023-03-07T06:01:54.144Z,6.70
2023-03-07T06:04:22.475Z,6.90
2023-03-07T06:06:50.546Z,6.90
2023-03-07T06:09:19.629Z,6.60
2023-03-07T06:11:47.816Z,7.10
2023-03-07T06:14:15.915Z,5.90
2023-03-07T06:16:44.985Z,6.70
2023-03-07T06:19:13.671Z,6.00
2023-03-07T06:21:43.917Z,6.40
2023-03-07T06:24:13.895Z,6.60
2023-03-07T06:26:43.122Z,6.00
2023-03-07T06:29:11.389Z,6.20
2023-03-07T06:31:39.583Z,6.10
2023-03-07T06:34:08.709Z,6.10
2023-03-07T06:36:37.049Z,6.30
2023-03-07T06:39:05.419Z,6.20
2023-03-07T06:41:35.232Z,6.30
2023-03-07T06:44:04.129Z,6.00
2023-03-07T06:46:33.404Z,6.10
2023-03-07T06:49:04.572Z,6.10
2023-03-07T06:51:33.251Z,6.00
2023-03-07T06:54:02.579Z,6.10
2023-03-07T06:56:32.101Z,5.90
2023-03-07T06:59:01.052Z,6.10
2023-03-07T07:01:29.714Z,6.00
2023-03-07T07:03:59.412Z,5.90
2023-03-07T07:06:29.398Z,5.90
2023-03-07T07:08:59.885Z,6.40
2023-03-07T07:11:31.341Z,5.60
2023-03-07T07:14:00.341Z,5.50
2023-03-07T07:16:29.482Z,5.40
2023-03-07T07:18:58.151Z,5.60
2023-03-07T07:21:26.505Z,5.90
2023-03-07T07:23:58.155Z,5.30
2023-03-07T07:26:26.939Z,5.50
2023-03-07T07:28:56.045Z,5.40
2023-03-07T07:31:25.898Z,5.80
2023-03-07T07:33:54.443Z,5.60
2023-03-07T07:36:24.467Z,5.60
2023-03-07T07:38:53.468Z,5.60
2023-03-07T07:41:22.359Z,5.90
2023-03-07T07:43:54.943Z,5.60
2023-03-07T07:46:44.099Z,5.70
2023-03-07T07:49:12.884Z,5.60
2023-03-07T07:51:41.763Z,5.70
2023-03-07T07:54:11.493Z,6.00
2023-03-07T07:56:40.597Z,5.80
2023-03-07T07:59:09.356Z,5.50
2023-03-07T08:01:38.046Z,6.20
2023-03-07T08:04:06.726Z,6.10
2023-03-07T08:06:35.630Z,5.90
2023-03-07T08:09:05.667Z,6.40
2023-03-07T08:11:33.916Z,6.40
2023-03-07T08:14:03.596Z,6.40
2023-03-07T08:16:32.027Z,6.40
2023-03-07T08:19:01.328Z,6.10
2023-03-07T08:21:29.485Z,5.80
2023-03-07T08:23:57.809Z,6.30
2023-03-07T08:26:26.853Z,6.40
2023-03-07T08:28:55.050Z,6.30
2023-03-07T08:31:24.720Z,6.50
2023-03-07T08:33:53.564Z,6.80
2023-03-07T08:36:22.424Z,6.50
2023-03-07T08:38:52.442Z,6.60
2023-03-07T08:41:23.174Z,6.90
2023-03-07T08:43:51.765Z,6.70
2023-03-07T08:46:19.996Z,7.40
2023-03-07T08:48:48.209Z,6.50
2023-03-07T08:51:18.738Z,7.30
2023-03-07T08:53:47.940Z,7.70
2023-03-07T08:56:18.754Z,6.90
2023-03-07T08:58:47.160Z,7.20
2023-03-07T09:01:15.211Z,7.40
2023-03-07T09:03:43.885Z,6.80
2023-03-07T09:06:21.153Z,7.30
2023-03-07T09:08:50.604Z,7.40
2023-03-07T09:11:21.692Z,6.80
2023-03-07T09:13:52.740Z,7.50
2023-03-07T09:16:23.068Z,7.30
2023-03-07T09:18:53.630Z,7.10
2023-03-07T09:21:22.133Z,7.00
2023-03-07T09:23:50.473Z,7.30
2023-03-07T09:26:18.962Z,7.10
2023-03-07T09:28:47.155Z,7.40
2023-03-07T09:31:16.655Z,7.50
2023-03-07T09:33:46.810Z,7.20
2023-03-07T09:36:17.430Z,7.30
2023-03-07T09:38:48.085Z,7.50
2023-03-07T09:41:44.275Z,7.60
2023-03-07T09:44:29.554Z,7.50
2023-03-07T09:47:33.561Z,7.30
2023-03-07T09:50:16.280Z,7.30
2023-03-07T09:52:44.951Z,6.90
2023-03-07T09:55:19.605Z,7.50
2023-03-07T09:57:51.843Z,7.90
2023-03-07T10:00:31.210Z,7.50
2023-03-07T10:03:20.643Z,7.00
2023-03-07T10:05:52.417Z,7.20
2023-03-07T10:08:29.687Z,7.00
2023-03-07T10:11:33.559Z,7.30
2023-03-07T10:14:10.307Z,6.50
2023-03-07T10:17:43.143Z,7.50
2023-03-07T10:20:40.594Z,7.30
2023-03-07T10:23:46.404Z,7.20
2023-03-07T10:26:32.610Z,7.00
2023-03-07T10:29:15.375Z,7.60
2023-03-07T10:31:56.420Z,7.30
2023-03-07T10:34:32.732Z,7.50
2023-03-07T10:37:27.289Z,7.30
2023-03-07T10:39:57.084Z,7.70
2023-03-07T10:42:33.846Z,7.30
2023-03-07T10:45:03.361Z,7.30
2023-03-07T10:47:31.356Z,7.50
2023-03-07T10:50:27.970Z,7.50
2023-03-07T10:53:00.954Z,7.40
2023-03-07T10:55:44.882Z,7.20
2023-03-07T10:58:23.013Z,7.30
2023-03-07T11:01:06.583Z,7.50
2023-03-07T11:03:59.893Z,7.20
2023-03-07T11:06:39.653Z,7.40
2023-03-07T11:09:26.607Z,7.60
2023-03-07T11:12:20.540Z,7.60
2023-03-07T11:15:01.016Z,7.20
2023-03-07T11:17:45.296Z,7.20
2023-03-07T11:20:46.403Z,7.20
2023-03-07T11:23:18.453Z,7.60
2023-03-07T11:25:47.062Z,7.20
2023-03-07T11:28:36.046Z,7.20
2023-03-07T11:31:32.030Z,7.10
2023-03-07T11:34:09.889Z,6.80
2023-03-07T11:36:44.213Z,6.60
2023-03-07T11:39:44.883Z,7.00
2023-03-07T11:42:24.848Z,6.90
2023-03-07T11:45:00.489Z,7.00
2023-03-07T11:48:20.474Z,6.70
2023-03-07T11:50:57.521Z,6.30
2023-03-07T11:53:59.424Z,6.60
2023-03-07T11:56:40.404Z,6.80
2023-03-07T11:59:45.850Z,6.80
2023-03-07T12:02:29.131Z,7.00
2023-03-07T12:05:43.164Z,6.00
2023-03-07T12:08:23.503Z,7.00
2023-03-07T12:11:34.290Z,6.10
2023-03-07T12:14:40.551Z,6.60
2023-03-07T12:17:36.044Z,6.50
2023-03-07T12:20:38.274Z,6.10
2023-03-07T12:23:18.350Z,5.80
2023-03-07T12:25:54.749Z,6.30
2023-03-07T12:28:32.048Z,6.30
2023-03-07T12:31:20.228Z,6.30
2023-03-07T12:34:16.454Z,5.60
2023-03-07T12:37:16.941Z,5.50
2023-03-07T12:39:54.630Z,6.10
2023-03-07T12:42:45.336Z,6.30
2023-03-07T12:45:21.401Z,6.00
2023-03-07T12:48:17.327Z,5.70
2023-03-07T12:51:06.902Z,5.20
2023-03-07T12:54:04.172Z,5.30
2023-03-07T12:57:02.741Z,5.80
2023-03-07T12:59:37.349Z,5.50
2023-03-07T13:04:58.052Z,5.50
2023-03-07T13:07:29.984Z,5.10
2023-03-07T13:10:01.145Z,5.70
2023-03-07T13:12:29.925Z,5.00
2023-03-07T13:15:06.750Z,5.20
2023-03-07T13:17:38.335Z,5.00
2023-03-07T13:20:15.734Z,5.00
2023-03-07T13:22:43.888Z,5.10
2023-03-07T13:25:22.600Z,5.10
2023-03-07T13:27:59.951Z,4.90
2023-03-07T13:30:30.346Z,4.90
2023-03-07T13:33:24.177Z,4.90
2023-03-07T13:35:54.811Z,5.10
2023-03-07T13:38:41.861Z,4.90
2023-03-07T13:41:13.933Z,5.00
2023-03-07T13:43:45.042Z,5.00
2023-03-07T13:46:26.228Z,4.40
2023-03-07T13:48:54.288Z,4.40
2023-03-07T13:51:23.294Z,4.60
2023-03-07T13:53:56.953Z,4.70
2023-03-07T13:56:30.898Z,4.60
2023-03-07T13:59:21.586Z,4.70
2023-03-07T14:01:59.261Z,4.40
2023-03-07T14:05:03.307Z,4.30
2023-03-07T14:07:42.044Z,4.50
2023-03-07T14:10:31.818Z,4.60
2023-03-07T14:13:31.012Z,4.80
2023-03-07T14:16:09.984Z,4.80
2023-03-07T14:19:04.746Z,4.50
2023-03-07T14:21:44.700Z,5.50
2023-03-07T14:24:50.682Z,4.80
2023-03-07T14:30:17.217Z,4.20
2023-03-07T14:32:47.542Z,4.80
2023-03-07T14:35:32.090Z,4.20
2023-03-07T14:38:00.497Z,4.30
2023-03-07T14:40:54.255Z,4.50
2023-03-07T14:43:22.262Z,4.10
2023-03-07T14:46:08.700Z,3.90
2023-03-07T14:49:38.078Z,4.10
2023-03-07T14:52:28.244Z,4.40
2023-03-07T14:55:02.335Z,4.40
2023-03-07T14:57:46.306Z,3.80
2023-03-07T15:00:23.359Z,4.10
2023-03-07T15:02:55.522Z,4.00
2023-03-07T15:05:38.144Z,4.00
2023-03-07T15:08:22.484Z,4.00
2023-03-07T15:11:06.846Z,4.00
2023-03-07T15:13:45.984Z,4.10
2023-03-07T15:16:41.591Z,4.00
2023-03-07T15:19:26.376Z,3.70
2023-03-07T15:22:03.192Z,3.60
2023-03-07T15:24:37.874Z,3.90
2023-03-07T15:27:21.951Z,3.70
2023-03-07T15:29:51.372Z,3.70
2023-03-07T15:32:34.911Z,3.90
2023-03-07T15:35:06.850Z,3.70
2023-03-07T15:37:51.268Z,3.60
2023-03-07T15:40:34.827Z,3.50
2023-03-07T15:43:04.407Z,3.30
2023-03-07T15:45:38.459Z,3.40
2023-03-07T15:48:27.179Z,3.20
2023-03-07T15:51:03.453Z,3.10
2023-03-07T15:53:38.784Z,3.70
2023-03-07T15:56:24.798Z,3.40
2023-03-07T15:59:03.361Z,3.60
2023-03-07T16:01:31.452Z,3.50
2023-03-07T16:04:04.086Z,3.20
2023-03-07T16:06:38.478Z,3.20
2023-03-07T16:09:12.343Z,3.00
2023-03-07T16:11:45.864Z,2.90
2023-03-07T16:14:29.266Z,3.60
2023-03-07T16:17:02.454Z,3.40
2023-03-07T16:19:30.786Z,3.30
2023-03-07T16:21:59.184Z,3.10
2023-03-07T16:24:27.229Z,3.50
2023-03-07T16:26:55.400Z,3.40
2023-03-07T16:29:23.643Z,3.10
2023-03-07T16:31:52.130Z,3.30
2023-03-07T16:34:23.126Z,2.90
2023-03-07T16:36:51.166Z,3.50
2023-03-07T16:39:19.424Z,2.90
2023-03-07T16:41:59.185Z,3.30
2023-03-07T16:44:43.657Z,3.40
2023-03-07T16:47:18.873Z,3.00
2023-03-07T16:49:47.163Z,3.40
2023-03-07T16:52:15.341Z,3.10
2023-03-07T16:54:43.816Z,2.90
2023-03-07T16:57:16.048Z,3.40
2023-03-07T16:59:47.946Z,3.30
2023-03-07T17:02:19.849Z,3.10
2023-03-07T17:04:48.499Z,3.20
2023-03-07T17:07:22.085Z,2.90
2023-03-07T17:09:50.790Z,3.30
2023-03-07T17:12:23.794Z,2.90
2023-03-07T17:14:52.675Z,2.90
2023-03-07T17:17:33.531Z,2.70
2023-03-07T17:20:02.234Z,3.40
2023-03-07T17:22:30.182Z,3.30
2023-03-07T17:24:58.567Z,3.10
2023-03-07T17:27:28.150Z,2.80
2023-03-07T17:29:56.760Z,2.80
2023-03-07T17:32:24.834Z,3.00
2023-03-07T17:34:53.621Z,2.80
2023-03-07T17:37:22.631Z,2.70
2023-03-07T17:39:51.000Z,3.10
2023-03-07T17:42:20.402Z,2.60
2023-03-07T17:44:49.083Z,2.70
2023-03-07T17:47:17.157Z,3.00
2023-03-07T17:49:46.867Z,2.60
2023-03-07T17:52:15.352Z,3.10
2023-03-07T17:54:46.099Z,3.40
2023-03-07T17:57:15.999Z,2.70
2023-03-07T17:59:45.323Z,2.90
2023-03-07T18:02:17.845Z,3.00
2023-03-07T18:04:47.689Z,2.60
2023-03-07T18:07:18.726Z,2.90
2023-03-07T18:09:53.642Z,2.90
2023-03-07T18:12:31.331Z,2.90
2023-03-07T18:14:59.561Z,2.90
2023-03-07T18:17:38.469Z,2.60
2023-03-07T18:20:15.368Z,2.90
2023-03-07T18:22:45.018Z,2.80
2023-03-07T18:25:16.481Z,2.70
2023-03-07T18:27:46.421Z,2.90
2023-03-07T18:30:16.229Z,2.70
2023-03-07T18:32:45.742Z,2.90
2023-03-07T18:35:15.773Z,2.80
2023-03-07T18:37:45.396Z,2.60
2023-03-07T18:40:15.478Z,3.00
2023-03-07T18:42:44.257Z,2.50
2023-03-07T18:45:13.083Z,2.70
2023-03-07T18:47:41.522Z,2.40
2023-03-07T18:50:13.503Z,2.60
2023-03-07T18:52:41.866Z,2.60
2023-03-07T18:55:10.850Z,2.70
2023-03-07T18:57:40.368Z,2.60
2023-03-07T19:00:11.939Z,2.70
2023-03-07T19:02:40.245Z,2.50
2023-03-07T19:05:09.094Z,2.70
2023-03-07T19:07:38.913Z,2.50
2023-03-07T19:10:11.849Z,2.70
2023-03-07T19:12:42.333Z,2.40
2023-03-07T19:15:14.549Z,2.60
2023-03-07T19:17:44.036Z,2.70
2023-03-07T19:20:13.524Z,2.70
2023-03-07T19:22:47.146Z,2.40
2023-03-07T19:25:16.987Z,2.60
2023-03-07T19:27:46.012Z,2.60
2023-03-07T19:30:15.881Z,2.50
2023-03-07T19:32:46.402Z,2.70
2023-03-07T19:35:16.784Z,2.60
2023-03-07T19:37:45.368Z,2.60
2023-03-07T19:40:14.482Z,2.50
2023-03-07T19:42:43.242Z,2.50
2023-03-07T19:45:12.445Z,2.70
2023-03-07T19:47:40.719Z,2.60
2023-03-07T19:50:10.734Z,2.60
2023-03-07T19:52:39.225Z,2.90
2023-03-07T19:55:08.617Z,2.70
2023-03-07T19:57:37.740Z,2.60
2023-03-07T20:00:08.320Z,2.80
2023-03-07T20:02:40.620Z,3.10
2023-03-07T20:05:09.587Z,3.20
2023-03-07T20:07:42.055Z,2.90
2023-03-07T20:10:11.699Z,3.00
2023-03-07T20:12:40.192Z,3.00
2023-03-07T20:15:09.527Z,2.60
2023-03-07T20:17:38.579Z,2.90
2023-03-07T20:20:09.308Z,2.80
2023-03-07T20:22:40.782Z,2.70
2023-03-07T20:25:11.977Z,2.70
2023-03-07T20:27:41.372Z,2.80
2023-03-07T20:30:12.296Z,2.60
2023-03-07T20:32:42.097Z,2.50
2023-03-07T20:35:10.537Z,2.60
2023-03-07T20:37:38.856Z,2.30
2023-03-07T20:40:08.729Z,2.30
2023-03-07T20:42:38.656Z,2.60
2023-03-07T20:45:08.296Z,2.50
2023-03-07T20:47:39.060Z,2.40
2023-03-07T20:50:08.906Z,2.50
2023-03-07T20:52:37.207Z,2.80
2023-03-07T20:55:06.651Z,2.40
2023-03-07T20:57:35.421Z,3.00
2023-03-07T21:00:04.480Z,2.50
2023-03-07T21:02:32.871Z,2.80
2023-03-07T21:05:01.548Z,2.70
2023-03-07T21:07:31.159Z,2.90
2023-03-07T21:09:59.643Z,2.80
2023-03-07T21:12:29.097Z,3.00
2023-03-07T21:14:57.661Z,2.80
2023-03-07T21:17:26.633Z,2.50
2023-03-07T21:19:55.145Z,2.50
2023-03-07T21:22:23.987Z,2.90
2023-03-07T21:24:52.969Z,2.50
2023-03-07T21:27:21.573Z,2.40
2023-03-07T21:29:51.823Z,2.40
2023-03-07T21:32:20.812Z,2.70
2023-03-07T21:34:49.887Z,3.00
2023-03-07T21:37:19.070Z,2.70
2023-03-07T21:39:47.519Z,2.90
2023-03-07T21:42:16.344Z,2.50
2023-03-07T21:44:44.671Z,2.70
2023-03-07T21:47:13.311Z,2.70
2023-03-07T21:49:41.989Z,2.90
2023-03-07T21:52:10.210Z,2.70
2023-03-07T21:54:38.758Z,2.60
2023-03-07T21:57:07.110Z,2.60
2023-03-07T21:59:36.723Z,2.50
2023-03-07T22:02:05.349Z,2.50
2023-03-07T22:04:33.722Z,2.90
2023-03-07T22:07:01.975Z,2.40
2023-03-07T22:09:30.354Z,2.60
2023-03-07T22:11:59.244Z,2.40
2023-03-07T22:14:27.724Z,2.40
2023-03-07T22:16:56.164Z,2.60
2023-03-07T22:19:24.544Z,2.40
2023-03-07T22:21:53.608Z,2.30
2023-03-07T22:24:22.857Z,2.50
2023-03-07T22:26:51.562Z,2.40
2023-03-07T22:29:20.058Z,2.70
2023-03-07T22:31:48.478Z,2.50
2023-03-07T22:34:17.046Z,2.40
2023-03-07T22:36:51.612Z,2.40
2023-03-07T22:39:20.769Z,2.30
2023-03-07T22:41:49.111Z,2.10
2023-03-07T22:44:19.852Z,2.50
2023-03-07T22:46:51.006Z,2.60
2023-03-07T22:49:20.116Z,2.20
2023-03-07T22:51:48.333Z,2.40
2023-03-07T22:54:16.808Z,2.40
2023-03-07T22:56:46.756Z,2.20
2023-03-07T22:59:16.562Z,2.30
2023-03-07T23:01:46.619Z,2.20
2023-03-07T23:04:15.601Z,2.40
2023-03-07T23:06:44.888Z,2.40
2023-03-07T23:09:13.373Z,2.20
2023-03-07T23:11:44.105Z,2.40
2023-03-07T23:14:12.491Z,2.30
2023-03-07T23:16:42.514Z,2.20
2023-03-07T23:19:11.587Z,2.20
2023-03-07T23:21:40.312Z,2.20
2023-03-07T23:24:11.638Z,2.10
2023-03-07T23:26:41.889Z,2.50
2023-03-07T23:29:12.316Z,2.40
2023-03-07T23:31:44.179Z,2.40
2023-03-07T23:34:23.323Z,2.10
2023-03-07T23:36:53.406Z,2.20
2023-03-07T23:39:22.306Z,2.10
2023-03-07T23:41:52.658Z,2.20
2023-03-07T23:44:21.974Z,2.40
2023-03-07T23:46:52.582Z,2.20
2023-03-07T23:49:22.883Z,2.30
2023-03-07T23:51:51.788Z,2.20
2023-03-07T23:54:21.193Z,2.30
2023-03-07T23:56:51.004Z,2.10
2023-03-07T23:59:19.683Z,2.20
